Richland, Iowa
Current Conditions -  °F | °C
As of 9:15 PM on Sunday 21 Dec 2014 (Local Time) from KFFL Reporting Station
Overcast Overcast  
Wind Chill: 32°   Ceiling: 1400
Heat Index: 39°   Visibility: 10mi
Dew Point: 36°   Wind: 13mph
Humidity: 87%   Direction: 140°SE
Pressure: 29.86"   Gusts: NA
Location:  41.19°N, 91.99°W
Report Text: KFFL 220315Z AUTO 14011KT 10SM OVC014 04/02 A2986 RMK AO2
Loading
Personal Weather Stations






























Interactive Weather Map New forecast layout! Learn more

10-Day Weather Forecast

Advertisements
Track Severe Weather on mobile